createdAt,value
2019-02-03T00:01:55.128Z,41.77
2019-02-03T00:04:26.901Z,32.00
2019-02-03T00:07:03.343Z,32.63
2019-02-03T00:09:31.429Z,34.23
2019-02-03T00:12:02.862Z,36.50
2019-02-03T00:14:34.142Z,33.33
2019-02-03T00:17:05.587Z,36.97
2019-02-03T00:19:37.921Z,43.47
2019-02-03T00:22:09.322Z,46.63
2019-02-03T00:24:40.593Z,38.77
2019-02-03T00:27:12.903Z,33.93
2019-02-03T00:29:44.292Z,39.80
2019-02-03T00:32:15.732Z,36.43
2019-02-03T00:34:47.099Z,39.47
2019-02-03T00:37:18.589Z,38.37
2019-02-03T00:39:50.030Z,41.90
2019-02-03T00:42:21.709Z,42.03
2019-02-03T00:44:53.081Z,53.93
2019-02-03T00:47:24.489Z,46.27
2019-02-03T00:49:56.762Z,55.27
2019-02-03T00:52:28.152Z,56.37
2019-02-03T00:54:59.526Z,47.33
2019-02-03T00:57:32.388Z,54.10
2019-02-03T01:00:04.918Z,50.40
2019-02-03T01:02:37.644Z,49.83
2019-02-03T01:05:12.487Z,50.47
2019-02-03T01:07:43.964Z,51.93
2019-02-03T01:10:17.525Z,48.17
2019-02-03T01:12:49.288Z,46.77
2019-02-03T01:15:20.732Z,48.37
2019-02-03T01:17:52.159Z,45.23
2019-02-03T01:20:23.588Z,46.13
2019-02-03T01:22:55.017Z,45.63
2019-02-03T01:25:26.369Z,42.87
2019-02-03T01:27:57.849Z,41.13
2019-02-03T01:30:29.221Z,44.17
2019-02-03T01:33:00.619Z,36.87
2019-02-03T01:35:31.997Z,41.07
2019-02-03T01:38:03.442Z,39.47
2019-02-03T01:40:34.806Z,41.30
2019-02-03T01:43:06.174Z,33.73
2019-02-03T01:45:37.520Z,34.93
2019-02-03T01:48:09.257Z,37.07
2019-02-03T01:50:40.636Z,37.97
2019-02-03T01:53:12.060Z,37.33
2019-02-03T01:55:43.554Z,36.40
2019-02-03T01:58:14.989Z,32.67
2019-02-03T02:00:46.417Z,38.27
2019-02-03T02:03:17.717Z,36.20
2019-02-03T02:05:49.111Z,37.00
2019-02-03T02:08:20.502Z,33.73
2019-02-03T02:10:51.854Z,38.00
2019-02-03T02:13:23.247Z,38.53
2019-02-03T02:15:54.865Z,38.33
2019-02-03T02:18:26.265Z,35.90
2019-02-03T02:20:57.701Z,34.90
2019-02-03T02:23:29.124Z,31.13
2019-02-03T02:26:00.952Z,30.23
2019-02-03T02:28:32.409Z,33.03
2019-02-03T02:31:04.796Z,27.60
2019-02-03T02:33:36.203Z,30.30
2019-02-03T02:36:07.948Z,24.93
2019-02-03T02:38:39.363Z,22.70
2019-02-03T02:41:10.701Z,22.33
2019-02-03T02:43:42.126Z,20.73
2019-02-03T02:46:13.495Z,20.23
2019-02-03T02:48:45.094Z,18.07
2019-02-03T02:51:16.438Z,18.87
2019-02-03T02:53:47.801Z,19.00
2019-02-03T02:56:19.234Z,19.57
2019-02-03T02:58:51.116Z,20.60
2019-02-03T03:01:22.461Z,20.57
2019-02-03T03:03:53.740Z,20.47
2019-02-03T03:06:25.097Z,20.23
2019-02-03T03:08:56.464Z,20.83
2019-02-03T03:11:27.815Z,19.00
2019-02-03T03:13:59.193Z,20.03
2019-02-03T03:16:30.577Z,21.07
2019-02-03T03:19:02.026Z,20.20
2019-02-03T03:21:33.437Z,21.40
2019-02-03T03:24:05.324Z,20.80
2019-02-03T03:26:37.673Z,20.33
2019-02-03T03:29:09.070Z,20.87
2019-02-03T03:31:41.318Z,20.03
2019-02-03T03:34:12.713Z,20.53
2019-02-03T03:36:44.094Z,20.47
2019-02-03T03:39:15.483Z,21.00
2019-02-03T03:41:46.760Z,21.23
2019-02-03T03:44:18.154Z,19.77
2019-02-03T03:46:49.610Z,20.90
2019-02-03T03:49:20.994Z,20.27
2019-02-03T03:51:52.392Z,21.50
2019-02-03T03:54:23.808Z,20.63
2019-02-03T03:56:55.237Z,20.00
2019-02-03T03:59:26.804Z,20.90
2019-02-03T04:01:58.204Z,20.30
2019-02-03T04:04:29.613Z,21.43
2019-02-03T04:07:00.965Z,22.03
2019-02-03T04:09:32.459Z,21.93
2019-02-03T04:12:04.218Z,22.47
2019-02-03T04:14:35.629Z,23.27
2019-02-03T04:17:07.007Z,22.23
2019-02-03T04:19:38.381Z,23.20
2019-02-03T04:22:09.741Z,24.40
2019-02-03T04:24:41.111Z,22.43
2019-02-03T04:27:12.468Z,23.20
2019-02-03T04:29:43.780Z,24.30
2019-02-03T04:32:15.999Z,24.23
2019-02-03T04:34:47.457Z,23.93
2019-02-03T04:37:18.725Z,25.10
2019-02-03T04:39:50.159Z,23.67
2019-02-03T04:42:21.446Z,25.53
2019-02-03T04:44:53.148Z,25.93
2019-02-03T04:47:24.811Z,24.60
2019-02-03T04:49:56.131Z,24.00
2019-02-03T04:52:27.459Z,23.70
2019-02-03T04:54:58.922Z,23.73
2019-02-03T04:57:30.116Z,23.97
2019-02-03T05:00:01.611Z,23.00
2019-02-03T05:02:32.988Z,22.57
2019-02-03T05:05:05.336Z,22.77
2019-02-03T05:07:36.697Z,22.23
2019-02-03T05:10:09.633Z,23.80
2019-02-03T05:12:41.036Z,25.80
2019-02-03T05:15:15.425Z,26.17
2019-02-03T05:17:46.801Z,24.80
2019-02-03T05:20:19.569Z,25.77
2019-02-03T05:22:51.195Z,25.20
2019-02-03T05:25:22.579Z,24.70
2019-02-03T05:27:54.006Z,24.47
2019-02-03T05:30:27.813Z,28.13
2019-02-03T05:33:00.055Z,25.20
2019-02-03T05:35:32.455Z,26.83
2019-02-03T05:38:03.816Z,29.73
2019-02-03T05:40:35.205Z,29.23
2019-02-03T05:43:06.558Z,28.23
2019-02-03T05:45:38.325Z,28.10
2019-02-03T05:48:09.688Z,28.97
2019-02-03T05:50:41.070Z,30.10
2019-02-03T05:53:12.353Z,26.20
2019-02-03T05:55:43.735Z,25.80
2019-02-03T05:58:15.259Z,30.27
2019-02-03T06:00:46.728Z,28.93
2019-02-03T06:03:18.021Z,27.13
2019-02-03T06:05:49.361Z,28.63
2019-02-03T06:08:20.913Z,28.00
2019-02-03T06:10:52.389Z,29.90
2019-02-03T06:13:23.656Z,28.40
2019-02-03T06:15:55.090Z,29.93
2019-02-03T06:18:26.481Z,28.13
2019-02-03T06:20:58.830Z,29.40
2019-02-03T06:23:30.181Z,28.10
2019-02-03T06:26:01.554Z,32.97
2019-02-03T06:28:32.905Z,30.87
2019-02-03T06:31:10.619Z,31.53
2019-02-03T06:33:42.470Z,29.47
2019-02-03T06:36:15.370Z,31.80
2019-02-03T06:38:46.855Z,32.37
2019-02-03T06:41:18.421Z,30.07
2019-02-03T06:43:50.187Z,29.53
2019-02-03T06:46:40.652Z,32.50
2019-02-03T06:49:33.969Z,32.87
2019-02-03T06:52:06.019Z,29.30
2019-02-03T06:54:37.518Z,32.20
2019-02-03T06:57:09.941Z,30.30
2019-02-03T06:59:50.611Z,28.67
2019-02-03T07:02:14.460Z,26.23
2019-02-03T07:04:45.819Z,29.13
2019-02-03T07:07:17.272Z,26.87
2019-02-03T07:09:59.785Z,31.40
2019-02-03T07:12:21.732Z,29.10
2019-02-03T07:14:53.878Z,31.17
2019-02-03T07:17:25.275Z,28.50
2019-02-03T07:19:56.693Z,28.77
2019-02-03T07:22:29.053Z,28.80
2019-02-03T07:25:00.757Z,25.67
2019-02-03T07:27:32.205Z,23.87
2019-02-03T07:30:03.840Z,25.60
2019-02-03T07:32:35.465Z,26.00
2019-02-03T07:35:06.845Z,23.87
2019-02-03T07:37:38.289Z,24.00
2019-02-03T07:40:12.691Z,22.37
2019-02-03T07:42:42.965Z,22.43
2019-02-03T07:45:14.432Z,21.47
2019-02-03T07:47:46.412Z,21.50
2019-02-03T07:50:17.772Z,21.90
2019-02-03T07:52:49.237Z,20.47
2019-02-03T07:55:20.663Z,19.73
2019-02-03T07:57:51.992Z,20.23
2019-02-03T08:00:23.649Z,20.80
2019-02-03T08:02:55.042Z,21.07
2019-02-03T08:05:26.390Z,19.93
2019-02-03T08:07:57.733Z,19.60
2019-02-03T08:10:29.806Z,20.07
2019-02-03T08:13:01.437Z,18.97
2019-02-03T08:15:32.814Z,19.37
2019-02-03T08:18:05.254Z,18.70
2019-02-03T08:20:36.741Z,19.63
2019-02-03T08:23:08.138Z,19.50
2019-02-03T08:25:39.493Z,19.50
2019-02-03T08:28:10.897Z,18.30
2019-02-03T08:30:42.300Z,18.00
2019-02-03T08:33:13.720Z,20.33
2019-02-03T08:35:45.088Z,19.17
2019-02-03T08:38:17.545Z,19.63
2019-02-03T08:40:48.970Z,20.70
2019-02-03T08:43:20.604Z,21.03
2019-02-03T08:45:51.989Z,31.93
2019-02-03T08:48:24.308Z,22.27
2019-02-03T08:50:55.644Z,22.53
2019-02-03T08:53:26.979Z,23.03
2019-02-03T08:55:58.477Z,21.90
2019-02-03T08:58:29.808Z,23.40
2019-02-03T09:01:01.447Z,22.80
2019-02-03T09:03:32.833Z,24.77
2019-02-03T09:06:04.318Z,22.67
2019-02-03T09:08:37.010Z,24.53
2019-02-03T09:11:08.362Z,23.47
2019-02-03T09:13:39.758Z,24.70
2019-02-03T09:16:12.205Z,24.23
2019-02-03T09:18:43.757Z,24.90
2019-02-03T09:21:15.111Z,23.37
2019-02-03T09:23:46.668Z,22.33
2019-02-03T09:26:18.060Z,25.17
2019-02-03T09:28:49.461Z,23.93
2019-02-03T09:31:20.970Z,25.90
2019-02-03T09:33:52.327Z,25.27
2019-02-03T09:36:24.288Z,26.93
2019-02-03T09:38:55.717Z,30.30
2019-02-03T09:41:27.229Z,27.37
2019-02-03T09:43:58.659Z,27.83
2019-02-03T09:46:30.013Z,26.30
2019-02-03T09:49:01.565Z,24.77
2019-02-03T09:51:32.988Z,25.63
2019-02-03T09:54:04.586Z,30.53
2019-02-03T09:56:35.924Z,28.10
2019-02-03T09:59:07.332Z,29.30
2019-02-03T10:01:38.684Z,28.30
2019-02-03T10:04:11.237Z,27.27
2019-02-03T10:06:42.582Z,26.97
2019-02-03T10:09:13.988Z,26.93
2019-02-03T10:11:45.368Z,28.50
2019-02-03T10:14:16.896Z,28.53
2019-02-03T10:16:48.289Z,27.00
2019-02-03T10:19:19.902Z,27.40
2019-02-03T10:21:51.258Z,28.87
2019-02-03T10:24:23.125Z,24.47
2019-02-03T10:26:55.293Z,27.20
2019-02-03T10:29:26.973Z,27.67
2019-02-03T10:31:58.333Z,29.10
2019-02-03T10:34:30.055Z,28.53
2019-02-03T10:37:01.652Z,28.33
2019-02-03T10:39:33.437Z,26.30
2019-02-03T10:42:05.121Z,27.30
2019-02-03T10:44:36.853Z,27.57
2019-02-03T10:47:08.332Z,27.40
2019-02-03T10:49:39.743Z,31.53
2019-02-03T10:52:13.143Z,33.63
2019-02-03T10:54:44.352Z,33.10
2019-02-03T10:57:15.853Z,33.93
2019-02-03T10:59:47.256Z,35.17
2019-02-03T11:02:18.721Z,34.63
2019-02-03T11:04:50.133Z,29.50
2019-02-03T11:07:21.690Z,29.27
2019-02-03T11:09:53.111Z,31.30
2019-02-03T11:12:24.537Z,29.30
2019-02-03T11:14:56.161Z,27.23
2019-02-03T11:17:27.536Z,26.80
2019-02-03T11:19:58.883Z,28.73
2019-02-03T11:22:30.216Z,29.67
2019-02-03T11:25:01.555Z,28.37
2019-02-03T11:27:33.293Z,27.37
2019-02-03T11:30:07.340Z,27.17
2019-02-03T11:32:38.625Z,30.30
2019-02-03T11:35:10.248Z,26.80
2019-02-03T11:37:41.928Z,28.53
2019-02-03T11:40:15.415Z,30.10
2019-02-03T11:42:46.895Z,24.23
2019-02-03T11:45:24.260Z,27.90
2019-02-03T11:47:55.625Z,26.63
2019-02-03T11:50:29.893Z,24.97
2019-02-03T11:53:01.344Z,24.03
2019-02-03T11:55:32.920Z,25.70
2019-02-03T11:58:04.485Z,26.30
2019-02-03T12:00:37.068Z,26.77
2019-02-03T12:03:09.057Z,23.63
2019-02-03T12:05:41.621Z,25.13
2019-02-03T12:08:12.993Z,25.83
2019-02-03T12:10:44.405Z,23.77
2019-02-03T12:13:15.819Z,25.83
2019-02-03T12:15:48.128Z,26.47
2019-02-03T12:18:19.492Z,21.73
2019-02-03T12:20:50.927Z,24.90
2019-02-03T12:23:22.281Z,23.30
2019-02-03T12:25:54.104Z,23.67
2019-02-03T12:28:25.404Z,23.77
2019-02-03T12:30:56.800Z,25.17
2019-02-03T12:33:28.678Z,25.87
2019-02-03T12:36:00.132Z,22.50
2019-02-03T12:38:31.499Z,23.73
2019-02-03T12:41:02.953Z,23.47
2019-02-03T12:43:34.324Z,23.33
2019-02-03T12:46:05.907Z,23.10
2019-02-03T12:48:37.577Z,24.67
2019-02-03T12:51:09.073Z,23.77
2019-02-03T12:53:40.349Z,24.40
2019-02-03T12:56:11.746Z,22.97
2019-02-03T12:58:43.267Z,23.73
2019-02-03T13:01:15.101Z,22.93
2019-02-03T13:03:46.499Z,23.17
2019-02-03T13:06:17.961Z,22.33
2019-02-03T13:08:49.316Z,23.20
2019-02-03T13:11:20.762Z,22.73
2019-02-03T13:13:52.293Z,24.23
2019-02-03T13:16:23.716Z,25.30
2019-02-03T13:18:55.106Z,27.10
2019-02-03T13:21:26.773Z,23.53
2019-02-03T13:23:58.317Z,23.43
2019-02-03T13:26:29.713Z,24.43
2019-02-03T13:29:01.386Z,23.83
2019-02-03T13:31:32.845Z,22.40
2019-02-03T13:34:04.470Z,21.50
2019-02-03T13:36:36.285Z,23.40
2019-02-03T13:39:09.458Z,22.57
2019-02-03T13:41:41.119Z,23.00
2019-02-03T13:44:12.612Z,25.50
2019-02-03T13:46:44.092Z,26.40
2019-02-03T13:49:15.452Z,26.73
2019-02-03T13:51:47.533Z,24.23
2019-02-03T13:54:18.983Z,24.10
2019-02-03T13:56:50.371Z,24.43
2019-02-03T13:59:21.977Z,24.27
2019-02-03T14:01:53.466Z,24.83
2019-02-03T14:04:24.851Z,25.07
2019-02-03T14:06:56.405Z,22.47
2019-02-03T14:09:27.974Z,23.53
2019-02-03T14:11:59.528Z,23.60
2019-02-03T14:14:30.882Z,23.60
2019-02-03T14:17:02.209Z,24.97
2019-02-03T14:19:34.541Z,23.07
2019-02-03T14:22:06.534Z,22.80
2019-02-03T14:24:38.012Z,27.27
2019-02-03T14:27:09.490Z,25.10
2019-02-03T14:29:40.858Z,25.17
2019-02-03T14:32:12.280Z,23.73
2019-02-03T14:34:43.901Z,24.43
2019-02-03T14:37:15.292Z,23.20
2019-02-03T14:39:46.660Z,23.73
2019-02-03T14:42:18.065Z,24.37
2019-02-03T14:44:49.418Z,22.77
2019-02-03T14:47:21.703Z,23.40
2019-02-03T14:49:53.066Z,23.07
2019-02-03T14:52:24.401Z,23.70
2019-02-03T14:54:56.698Z,22.70
2019-02-03T14:57:28.638Z,26.03
2019-02-03T15:00:00.338Z,32.93
2019-02-03T15:02:31.838Z,31.33
2019-02-03T15:05:03.212Z,26.03
2019-02-03T15:07:37.707Z,25.27
2019-02-03T15:10:07.883Z,30.27
2019-02-03T15:12:39.520Z,23.47
2019-02-03T15:15:13.685Z,23.27
2019-02-03T15:17:45.097Z,23.90
2019-02-03T15:20:18.729Z,24.23
2019-02-03T15:22:51.102Z,22.67
2019-02-03T15:25:22.510Z,23.13
2019-02-03T15:27:54.070Z,24.57
2019-02-03T15:30:27.937Z,22.93
2019-02-03T15:32:59.322Z,25.13
2019-02-03T15:35:30.925Z,23.37
2019-02-03T15:38:02.490Z,22.13
2019-02-03T15:40:33.837Z,22.57
2019-02-03T15:43:05.937Z,24.87
2019-02-03T15:45:37.250Z,22.70
2019-02-03T15:48:08.947Z,22.13
2019-02-03T15:50:40.323Z,23.00
2019-02-03T15:53:11.866Z,23.97
2019-02-03T15:55:44.312Z,24.67
2019-02-03T15:58:16.175Z,22.00
2019-02-03T16:00:50.885Z,22.23
2019-02-03T16:03:22.268Z,24.40
2019-02-03T16:05:53.909Z,23.47
2019-02-03T16:08:25.301Z,23.67
2019-02-03T16:10:56.669Z,23.27
2019-02-03T16:13:36.838Z,22.53
2019-02-03T16:16:01.227Z,21.80
2019-02-03T16:18:32.469Z,22.47
2019-02-03T16:21:04.003Z,21.83
2019-02-03T16:23:35.439Z,21.73
2019-02-03T16:26:06.950Z,21.97
2019-02-03T16:28:38.482Z,21.57
2019-02-03T16:31:09.870Z,23.17
2019-02-03T16:33:41.321Z,23.33
2019-02-03T16:36:12.664Z,23.40
2019-02-03T16:38:44.265Z,21.13
2019-02-03T16:41:15.625Z,22.20
2019-02-03T16:43:49.069Z,21.30
2019-02-03T16:46:20.057Z,21.57
2019-02-03T16:48:51.489Z,21.40
2019-02-03T16:51:22.932Z,21.47
2019-02-03T16:53:54.658Z,20.33
2019-02-03T16:56:26.008Z,20.77
2019-02-03T16:58:57.420Z,20.47
2019-02-03T17:01:28.788Z,21.77
2019-02-03T17:04:00.170Z,20.70
2019-02-03T17:06:31.933Z,22.47
2019-02-03T17:09:04.658Z,22.20
2019-02-03T17:11:36.523Z,26.47
2019-02-03T17:14:08.012Z,22.50
2019-02-03T17:16:39.362Z,21.50
2019-02-03T17:19:10.991Z,20.60
2019-02-03T17:21:42.385Z,19.93
2019-02-03T17:24:13.804Z,20.37
2019-02-03T17:26:45.188Z,19.73
2019-02-03T17:29:16.405Z,36.93
2019-02-03T17:31:47.828Z,36.97
2019-02-03T17:34:19.313Z,25.73
2019-02-03T17:36:50.698Z,21.43
2019-02-03T17:39:22.127Z,21.60
2019-02-03T17:41:53.916Z,21.57
2019-02-03T17:44:25.301Z,20.47
2019-02-03T17:46:57.012Z,21.90
2019-02-03T17:49:28.427Z,19.87
2019-02-03T17:51:59.781Z,21.27
2019-02-03T17:54:32.120Z,20.93
2019-02-03T17:57:03.524Z,22.03
2019-02-03T17:59:34.993Z,27.60
2019-02-03T18:02:06.468Z,23.87
2019-02-03T18:04:37.915Z,21.67
2019-02-03T18:07:09.657Z,19.90
2019-02-03T18:09:41.089Z,19.13
2019-02-03T18:12:12.456Z,19.13
2019-02-03T18:14:47.093Z,18.77
2019-02-03T18:17:18.543Z,18.50
2019-02-03T18:19:50.009Z,19.80
2019-02-03T18:22:21.352Z,19.47
2019-02-03T18:24:53.773Z,19.50
2019-02-03T18:27:25.125Z,19.40
2019-02-03T18:29:56.679Z,18.73
2019-02-03T18:32:28.052Z,18.70
2019-02-03T18:34:59.520Z,18.90
2019-02-03T18:37:30.876Z,19.27
2019-02-03T18:40:02.353Z,18.93
2019-02-03T18:42:34.953Z,19.33
2019-02-03T18:45:07.188Z,18.60
2019-02-03T18:47:38.577Z,18.67
2019-02-03T18:50:12.209Z,19.40
2019-02-03T18:52:43.501Z,18.43
2019-02-03T18:55:18.179Z,18.80
2019-02-03T18:57:49.662Z,19.40
2019-02-03T19:00:26.257Z,18.63
2019-02-03T19:02:57.626Z,20.23
2019-02-03T19:05:31.066Z,19.43
2019-02-03T19:08:02.478Z,19.17
2019-02-03T19:10:33.884Z,18.73
2019-02-03T19:13:05.870Z,19.37
2019-02-03T19:15:37.489Z,18.80
2019-02-03T19:18:09.061Z,18.20
2019-02-03T19:20:40.781Z,19.10
2019-02-03T19:23:12.538Z,19.90
2019-02-03T19:25:44.524Z,19.07
2019-02-03T19:28:16.248Z,18.67
2019-02-03T19:30:47.720Z,18.73
2019-02-03T19:33:20.127Z,18.37
2019-02-03T19:35:51.536Z,17.57
2019-02-03T19:38:22.966Z,18.60
2019-02-03T19:40:54.907Z,19.10
2019-02-03T19:43:26.541Z,17.80
2019-02-03T19:45:58.036Z,18.00
2019-02-03T19:48:29.619Z,18.60
2019-02-03T19:51:01.065Z,17.67
2019-02-03T19:53:32.450Z,17.47
2019-02-03T19:56:04.299Z,16.60
2019-02-03T19:58:36.653Z,16.73
2019-02-03T20:01:08.147Z,17.07
2019-02-03T20:03:39.581Z,16.53
2019-02-03T20:06:10.999Z,16.63
2019-02-03T20:08:44.413Z,17.47
2019-02-03T20:11:15.408Z,16.80
2019-02-03T20:13:46.914Z,17.17
2019-02-03T20:16:18.796Z,16.73
2019-02-03T20:18:50.136Z,17.43
2019-02-03T20:21:24.593Z,16.87
2019-02-03T20:23:56.043Z,17.30
2019-02-03T20:26:27.496Z,17.53
2019-02-03T20:28:59.170Z,18.23
2019-02-03T20:31:30.669Z,17.63
2019-02-03T20:34:02.046Z,17.50
2019-02-03T20:36:33.485Z,17.17
2019-02-03T20:39:07.142Z,16.53
2019-02-03T20:41:40.148Z,16.73
2019-02-03T20:44:12.961Z,17.00
2019-02-03T20:46:44.358Z,16.67
2019-02-03T20:49:15.832Z,16.13
2019-02-03T20:51:47.240Z,16.90
2019-02-03T20:54:18.665Z,16.23
2019-02-03T20:56:50.168Z,16.17
2019-02-03T20:59:21.457Z,16.50
2019-02-03T21:01:52.932Z,15.50
2019-02-03T21:04:24.705Z,15.70
2019-02-03T21:06:56.216Z,16.03
2019-02-03T21:09:27.501Z,15.43
2019-02-03T21:11:59.139Z,15.30
2019-02-03T21:14:30.798Z,15.57
2019-02-03T21:17:02.530Z,15.60
2019-02-03T21:19:33.949Z,14.33
2019-02-03T21:22:05.377Z,15.67
2019-02-03T21:24:36.914Z,15.57
2019-02-03T21:27:08.581Z,16.47
2019-02-03T21:29:40.133Z,16.33
2019-02-03T21:32:11.745Z,16.80
2019-02-03T21:34:43.124Z,15.20
2019-02-03T21:37:14.572Z,15.77
2019-02-03T21:39:45.940Z,16.37
2019-02-03T21:42:17.364Z,15.50
2019-02-03T21:44:49.191Z,15.20
2019-02-03T21:47:20.728Z,15.33
2019-02-03T21:49:52.076Z,16.40
2019-02-03T21:52:23.778Z,16.30
2019-02-03T21:54:55.130Z,15.83
2019-02-03T21:57:26.539Z,16.10
2019-02-03T21:59:57.854Z,15.43
2019-02-03T22:02:29.229Z,15.90
2019-02-03T22:05:00.728Z,15.57
2019-02-03T22:07:32.125Z,15.10
2019-02-03T22:10:04.693Z,15.17
2019-02-03T22:12:36.096Z,16.10
2019-02-03T22:15:07.608Z,15.47
2019-02-03T22:17:39.278Z,15.53
2019-02-03T22:20:12.688Z,15.57
2019-02-03T22:22:44.064Z,14.47
2019-02-03T22:25:15.618Z,14.63
2019-02-03T22:27:46.980Z,15.10
2019-02-03T22:30:32.205Z,15.03
2019-02-03T22:33:03.921Z,15.60
2019-02-03T22:35:35.293Z,15.30
2019-02-03T22:38:07.428Z,16.17
2019-02-03T22:40:38.894Z,15.33
2019-02-03T22:43:10.510Z,15.43
2019-02-03T22:45:41.984Z,15.43
2019-02-03T22:48:14.253Z,15.37
2019-02-03T22:50:45.936Z,15.47
2019-02-03T22:53:18.308Z,14.87
2019-02-03T22:55:49.590Z,15.37
2019-02-03T22:58:21.109Z,15.43
2019-02-03T23:01:13.445Z,15.50
2019-02-03T23:03:56.583Z,16.20
2019-02-03T23:06:29.631Z,15.90
2019-02-03T23:09:04.589Z,16.30
2019-02-03T23:11:37.014Z,15.10
2019-02-03T23:14:08.512Z,14.83
2019-02-03T23:16:39.994Z,15.23
2019-02-03T23:19:11.417Z,14.30
2019-02-03T23:21:44.981Z,15.33
2019-02-03T23:24:15.989Z,14.43
2019-02-03T23:26:47.349Z,14.00
2019-02-03T23:29:18.794Z,13.70
2019-02-03T23:31:50.594Z,14.43
2019-02-03T23:34:21.925Z,14.63
2019-02-03T23:36:53.302Z,14.23
2019-02-03T23:39:24.692Z,14.23
2019-02-03T23:41:56.036Z,14.00
2019-02-03T23:47:08.432Z,14.47
2019-02-03T23:49:55.061Z,14.03
2019-02-03T23:52:38.628Z,13.67
2019-02-03T23:55:21.314Z,14.17
2019-02-03T23:58:04.324Z,13.87
